Time;durP1;ratioP1;P1;durP2;ratioP2;P2;SDS_P1;SDS_P2;PMS_P1;PMS_P2;Temp;Humidity;BMP_temperature;BMP_pressure;BME280_temperature;BME280_humidity;BME280_pressure;Samples;Min_cycle;Max_cycle;Signal;HPM_P1;HPM_P2
2021/12/16 00:06:49;;;;;;;67.18;42.15;;;;;;;7.89;100.00;103257.66;6247892;23;20014;-93
2021/12/16 00:09:14;;;;;;;63.10;40.78;;;;;;;7.67;100.00;103214.66;6247840;23;20005;-94
2021/12/16 00:31:28;;;;;;;62.83;40.67;;;;;;;7.93;100.00;103260.97;6223648;23;20074;-93
2021/12/16 00:34:06;;;;;;;65.13;40.00;;;;;;;7.69;100.00;103218.06;6220385;23;20007;-93
2021/12/16 00:36:39;;;;;;;64.32;41.38;;;;;;;7.81;100.00;103243.13;6219655;23;20004;-93
2021/12/16 00:39:25;;;;;;;62.17;41.03;;;;;;;7.90;100.00;103262.09;6219946;23;20018;-94
2021/12/16 00:42:03;;;;;;;63.40;39.50;;;;;;;7.66;100.00;103229.16;6220535;23;20398;-94
2021/12/16 00:45:06;;;;;;;60.97;39.60;;;;;;;7.64;100.00;103215.78;6220244;23;20008;-94
2021/12/16 00:47:55;;;;;;;57.60;39.15;;;;;;;7.67;100.00;103222.78;6219433;23;20000;-93
2021/12/16 00:55:58;;;;;;;60.08;39.58;;;;;;;7.64;100.00;103228.47;6246663;23;20023;-94
2021/12/16 00:58:34;;;;;;;61.70;40.30;;;;;;;7.62;100.00;103220.50;6220212;23;20011;-94
2021/12/16 01:04:16;;;;;;;64.60;39.92;;;;;;;7.77;100.00;103253.38;6257234;23;20035;-94
2021/12/16 01:07:02;;;;;;;58.17;39.83;;;;;;;7.64;100.00;103225.75;6246563;23;20477;-94
2021/12/16 01:35:02;;;;;;;59.15;40.05;;;;;;;7.57;100.00;103222.72;6246846;23;20039;-93
2021/12/16 01:38:06;;;;;;;;;;;;;;;8.03;100.00;103298.81;6219536;23;20008;-93
2021/12/16 01:49:16;;;;;;;60.00;39.72;;;;;;;7.72;100.00;103266.44;6224174;23;20386;-92
2021/12/16 01:52:30;;;;;;;56.33;39.03;;;;;;;7.66;100.00;103257.06;6200674;23;20494;-92
2021/12/16 02:00:43;;;;;;;56.00;37.75;;;;;;;7.65;100.00;103259.91;6235145;23;20011;-91
2021/12/16 02:03:21;;;;;;;;;;;;;;;;;;;;;
2021/12/16 02:06:08;;;;;;;56.03;37.70;;;;;;;7.90;100.00;103290.97;6248527;23;20075;-91
2021/12/16 02:08:39;;;;;;;57.15;37.88;;;;;;;7.68;100.00;103265.03;6221802;23;20103;-91
2021/12/16 02:11:23;;;;;;;57.70;38.90;;;;;;;7.73;100.00;103274.41;6197494;23;20027;-92
2021/12/16 02:28:15;;;;;;;55.97;39.15;;;;;;;8.05;100.00;103332.00;6248218;23;20011;-92
2021/12/16 02:34:19;;;;;;;58.10;37.63;;;;;;;7.94;100.00;103305.91;6248496;23;20343;-91
2021/12/16 02:36:43;;;;;;;56.70;37.78;;;;;;;7.73;100.00;103276.25;6247824;23;20015;-91
2021/12/16 02:39:19;;;;;;;56.37;36.73;;;;;;;7.75;100.00;103289.63;6221778;23;20703;-91
2021/12/16 02:41:49;;;;;;;56.10;37.60;;;;;;;7.92;100.00;103309.78;6221346;23;20381;-92
2021/12/16 02:49:51;;;;;;;54.40;37.30;;;;;;;7.72;100.00;103280.81;6248049;23;20088;-91
2021/12/16 02:52:20;;;;;;;54.80;36.83;;;;;;;7.72;100.00;103277.25;6197837;23;20406;-92
2021/12/16 02:54:49;;;;;;;56.78;37.47;;;;;;;7.84;100.00;103308.59;6221489;23;20004;-91
2021/12/16 02:57:20;;;;;;;51.30;36.85;;;;;;;7.75;100.00;103290.50;6221765;23;20352;-93
2021/12/16 02:59:53;;;;;;;54.30;36.35;;;;;;;8.08;100.00;103337.13;6221688;23;20053;-92
2021/12/16 03:02:28;;;;;;;57.72;36.40;;;;;;;7.72;100.00;103280.81;6222264;23;20366;-92
2021/12/16 03:04:57;;;;;;;57.22;37.53;;;;;;;7.73;100.00;103284.38;6233998;23;20008;-92
2021/12/16 03:07:35;;;;;;;52.13;36.50;;;;;;;7.69;100.00;103274.81;6214830;23;20039;-92
2021/12/16 03:21:08;;;;;;;54.03;36.78;;;;;;;7.72;100.00;103285.34;6258772;23;20339;-92
2021/12/16 03:38:18;;;;;;;51.80;35.97;;;;;;;7.69;100.00;103289.22;6156444;23;20021;-92
2021/12/16 03:41:00;;;;;;;51.53;36.55;;;;;;;7.91;100.00;103306.19;6207971;23;20008;-92
2021/12/16 03:43:33;;;;;;;54.13;36.97;;;;;;;7.64;100.00;103266.28;6200000;23;20339;-92
2021/12/16 03:48:43;;;;;;;54.70;35.92;;;;;;;7.99;100.00;103337.97;6247231;23;20035;-91
2021/12/16 03:51:18;;;;;;;52.38;37.00;;;;;;;7.71;100.00;103299.88;6221121;23;20482;-91
2021/12/16 03:53:49;;;;;;;55.80;37.33;;;;;;;7.88;100.00;103323.56;6221135;23;20327;-91
2021/12/16 03:56:24;;;;;;;53.28;36.28;;;;;;;7.87;100.00;103331.81;6220457;23;20340;-91
2021/12/16 03:58:58;;;;;;;55.45;36.08;;;;;;;7.73;100.00;103317.66;6195999;23;20008;-92
2021/12/16 04:01:30;;;;;;;55.45;36.75;;;;;;;7.78;100.00;103324.50;6221658;23;20497;-92
2021/12/16 04:04:04;;;;;;;55.37;36.97;;;;;;;7.69;100.00;103315.34;6220658;23;20316;-92
2021/12/16 04:06:37;;;;;;;57.10;36.70;;;;;;;7.71;100.00;103313.41;6219950;23;20562;-92
2021/12/16 04:09:11;;;;;;;57.75;36.67;;;;;;;7.70;100.00;103311.66;6220677;23;20011;-92
2021/12/16 04:11:47;;;;;;;55.95;36.90;;;;;;;7.71;100.00;103303.44;6219673;23;20098;-92
2021/12/16 04:14:28;;;;;;;52.17;36.78;;;;;;;7.70;100.00;103303.56;6220451;23;20384;-92
2021/12/16 04:17:02;;;;;;;57.53;37.88;;;;;;;7.73;100.00;103308.69;6219971;23;20015;-92
2021/12/16 04:19:57;;;;;;;53.47;36.15;;;;;;;8.08;100.00;103366.88;6196808;23;20505;-92
2021/12/16 04:22:43;;;;;;;52.92;35.47;;;;;;;7.68;100.00;103306.41;6196246;23;20018;-92
2021/12/16 04:25:32;;;;;;;56.95;36.90;;;;;;;7.98;100.00;103337.09;6219971;23;20334;-93
2021/12/16 04:28:12;;;;;;;51.08;35.97;;;;;;;7.92;100.00;103345.75;6220555;23;20008;-92
2021/12/16 04:30:47;;;;;;;50.05;35.08;;;;;;;7.88;100.00;103341.59;6219673;23;20012;-92
2021/12/16 04:33:25;;;;;;;55.70;37.28;;;;;;;7.65;100.00;103306.69;6194944;23;20008;-92
2021/12/16 04:36:18;;;;;;;55.00;36.60;;;;;;;7.65;100.00;103305.84;6220253;23;20351;-92
2021/12/16 04:39:11;;;;;;;59.13;37.07;;;;;;;7.67;100.00;103303.84;6199984;23;20019;-92
2021/12/16 04:41:53;;;;;;;53.90;36.97;;;;;;;7.87;100.00;103340.75;6219701;23;20246;-92
2021/12/16 04:44:31;;;;;;;54.88;37.47;;;;;;;7.62;100.00;103301.53;6219923;23;20019;-92
2021/12/16 04:47:06;;;;;;;57.63;38.25;;;;;;;7.60;100.00;103306.22;6219983;23;20439;-92
2021/12/16 04:49:51;;;;;;;53.75;37.45;;;;;;;7.60;100.00;103298.09;6219784;23;20004;-93
2021/12/16 04:52:36;;;;;;;;;;;;;;;;;;;;;
2021/12/16 04:55:20;;;;;;;53.30;36.45;;;;;;;7.81;100.00;103359.34;6247545;23;20056;-93
2021/12/16 04:57:59;;;;;;;57.15;36.35;;;;;;;7.42;100.00;103302.44;6195518;23;20325;-93
2021/12/16 05:00:39;;;;;;;55.65;37.42;;;;;;;7.40;100.00;103299.00;6196367;23;20014;-93
2021/12/16 05:03:09;;;;;;;54.97;38.00;;;;;;;7.35;100.00;103300.28;6220077;23;20010;-92
2021/12/16 05:05:36;;;;;;;59.13;38.75;;;;;;;7.35;100.00;103302.13;6195842;23;20008;-91
2021/12/16 05:08:07;;;;;;;58.58;38.13;;;;;;;7.50;100.00;103326.91;6219927;23;20000;-92
2021/12/16 05:10:35;;;;;;;66.35;37.45;;;;;;;7.18;100.00;103290.94;6220318;23;20004;-91
2021/12/16 05:13:06;;;;;;;56.47;38.22;;;;;;;7.54;100.00;103360.78;6220109;23;20321;-92
2021/12/16 05:15:40;;;;;;;63.00;39.63;;;;;;;7.39;100.00;103330.56;6195541;23;20019;-92
2021/12/16 05:18:18;;;;;;;62.00;39.55;;;;;;;7.14;100.00;103307.53;6220140;23;20394;-92
2021/12/16 05:20:55;;;;;;;63.88;40.70;;;;;;;7.11;100.00;103318.59;6220313;23;20370;-93
2021/12/16 05:26:19;;;;;;;70.07;40.67;;;;;;;6.98;100.00;103305.28;6225479;23;20070;-93
2021/12/16 05:29:00;;;;;;;66.63;40.83;;;;;;;7.09;100.00;103332.25;6196157;23;20012;-92
2021/12/16 05:31:38;;;;;;;71.77;40.37;;;;;;;7.11;100.00;103343.75;6221517;23;20004;-91
2021/12/16 05:34:07;;;;;;;73.68;41.55;;;;;;;6.97;100.00;103341.41;6195271;23;20324;-91
2021/12/16 05:36:34;;;;;;;63.45;39.40;;;;;;;7.01;100.00;103359.91;6194579;23;20106;-91
2021/12/16 05:39:01;;;;;;;67.35;41.25;;;;;;;6.74;100.00;103321.75;6195361;23;20032;-90
2021/12/16 05:41:44;;;;;;;67.90;40.30;;;;;;;6.70;100.00;103328.38;6219328;23;20338;-91
2021/12/16 05:44:27;;;;;;;67.30;41.58;;;;;;;6.70;100.00;103328.38;6195663;23;20094;-92
2021/12/16 05:47:05;;;;;;;72.35;42.17;;;;;;;6.56;100.00;103325.00;6219537;23;20399;-92
2021/12/16 05:49:39;;;;;;;75.22;42.20;;;;;;;6.68;100.00;103344.69;6195438;23;20378;-92
2021/12/16 05:52:15;;;;;;;78.13;43.08;;;;;;;6.54;100.00;103337.75;6195877;23;20339;-92
2021/12/16 05:55:01;;;;;;;79.57;44.80;;;;;;;6.52;100.00;103338.88;6220371;23;20368;-92
2021/12/16 05:57:39;;;;;;;77.82;43.22;;;;;;;6.66;100.00;103387.16;6219713;23;20012;-91
2021/12/16 06:00:18;;;;;;;82.25;42.90;;;;;;;6.52;100.00;103376.63;6219594;23;20431;-92
2021/12/16 06:03:00;;;;;;;78.65;43.00;;;;;;;6.28;100.00;103348.00;6220265;23;20004;-92
2021/12/16 06:05:37;;;;;;;82.85;43.72;;;;;;;6.43;100.00;103389.03;6197236;23;20339;-91
2021/12/16 06:08:15;;;;;;;82.38;44.83;;;;;;;6.19;100.00;103349.59;6199063;23;20424;-92
2021/12/16 06:27:15;;;;;;;90.93;45.17;;;;;;;6.07;100.00;103383.81;6224155;22;20023;-92
2021/12/16 06:29:54;;;;;;;82.68;44.70;;;;;;;6.18;100.00;103401.81;6195052;23;20011;-92
2021/12/16 06:33:01;;;;;;;74.47;42.35;;;;;;;5.97;100.00;103388.22;6221190;23;20110;-92
2021/12/16 06:35:53;;;;;;;;;;;;;;;;;;;;;
2021/12/16 06:38:56;;;;;;;;;;;;;;;;;;;;;
2021/12/16 06:41:38;;;;;;;74.90;41.50;;;;;;;5.75;100.00;103379.09;6218380;23;20499;-95
2021/12/16 06:47:34;;;;;;;84.78;45.47;;;;;;;5.73;100.00;103374.84;6248478;23;19958;-95
2021/12/16 06:50:52;;;;;;;88.72;44.83;;;;;;;5.70;100.00;103378.63;6221210;23;20416;-94
2021/12/16 06:53:44;;;;;;;;;;;;;;;;;;;;;
2021/12/16 06:56:24;;;;;;;;;;;;;;;6.09;100.00;103435.75;6246368;23;20503;-95
2021/12/16 06:59:20;;;;;;;82.40;43.88;;;;;;;5.63;100.00;103377.38;6221622;23;19903;-93
2021/12/16 07:04:30;;;;;;;96.70;47.97;;;;;;;5.78;100.00;103416.56;6257677;23;20023;-94
2021/12/16 07:07:00;;;;;;;105.95;48.78;;;;;;;5.84;100.00;103415.25;6220820;23;20077;-93
2021/12/16 07:09:26;;;;;;;104.10;50.78;;;;;;;5.71;100.00;103404.56;6220599;23;20015;-93
2021/12/16 07:11:57;;;;;;;94.82;47.97;;;;;;;5.64;100.00;103408.75;6220833;23;20016;-93
2021/12/16 07:14:47;;;;;;;92.85;46.05;;;;;;;5.48;100.00;103402.81;6222059;23;20466;-93
2021/12/16 07:17:21;;;;;;;92.88;46.20;;;;;;;5.68;100.00;103444.38;6246623;23;20340;-93
2021/12/16 07:19:51;;;;;;;92.07;46.22;;;;;;;5.62;100.00;103443.88;6221860;23;20095;-94
2021/12/16 07:22:18;;;;;;;113.50;52.20;;;;;;;5.72;100.00;103448.53;6220240;23;20004;-91
2021/12/16 07:25:55;;;;;;;124.40;53.50;;;;;;;5.43;100.00;103416.63;6220773;23;20000;-94
2021/12/16 07:28:44;;;;;;;115.22;50.53;;;;;;;5.42;100.00;103415.78;6245770;23;20083;-94
2021/12/16 07:31:55;;;;;;;115.70;49.90;;;;;;;5.76;100.00;103485.91;6217722;23;20054;-95
2021/12/16 07:34:24;;;;;;;131.40;51.88;;;;;;;5.37;100.00;103430.56;6216549;23;20000;-94
2021/12/16 07:37:45;;;;;;;;;;;;;;;;;;;;;
2021/12/16 07:41:16;;;;;;;134.80;50.67;;;;;;;5.72;100.00;103497.88;6247047;22;20083;-96
2021/12/16 07:47:18;;;;;;;95.70;48.38;;;;;;;5.35;100.00;103446.00;6246361;23;20004;-95
2021/12/16 07:50:14;;;;;;;99.43;46.55;;;;;;;5.33;100.00;103466.78;6196801;23;20431;-95
2021/12/16 07:53:26;;;;;;;111.53;49.45;;;;;;;5.38;100.00;103480.75;6209586;23;20008;-95
2021/12/16 07:55:57;;;;;;;111.32;49.70;;;;;;;5.51;100.00;103507.63;6219465;23;20004;-94
2021/12/16 08:01:35;;;;;;;100.22;46.13;;;;;;;5.42;100.00;103523.50;6225103;23;19907;-95
2021/12/16 08:04:57;;;;;;;;;;;;;;;;;;;;;
2021/12/16 08:08:07;;;;;;;;;;;;;;;;;;;;;
2021/12/16 08:15:18;;;;;;;;;;;;;;;;;;;;;
2021/12/16 08:17:58;;;;;;;450.13;63.67;;;;;;;5.24;100.00;103504.19;6248209;22;20076;-96
2021/12/16 08:20:29;;;;;;;152.57;51.40;;;;;;;5.19;100.00;103509.06;6220173;23;20008;-94
2021/12/16 08:22:56;;;;;;;156.90;51.05;;;;;;;5.20;100.00;103513.47;6220209;23;20004;-94
2021/12/16 08:25:42;;;;;;;222.00;50.58;;;;;;;5.15;100.00;103512.94;6247097;23;20079;-95
2021/12/16 08:28:57;;;;;;;144.55;50.72;;;;;;;5.18;100.00;103528.00;6220531;23;20083;-95
2021/12/16 08:31:49;;;;;;;179.73;49.70;;;;;;;5.37;100.00;103557.13;6245619;23;20036;-95
2021/12/16 08:34:33;;;;;;;299.05;48.65;;;;;;;5.05;100.00;103515.47;6220636;23;20331;-95
2021/12/16 08:37:14;;;;;;;130.25;49.63;;;;;;;5.52;100.00;103592.81;6198166;23;20015;-94
2021/12/16 08:40:20;;;;;;;112.35;48.70;;;;;;;5.13;100.00;103527.50;6221466;23;20130;-94
2021/12/16 08:43:17;;;;;;;179.38;50.08;;;;;;;5.52;100.00;103593.69;6202329;23;20039;-95
2021/12/16 08:46:14;;;;;;;207.60;49.15;;;;;;;5.21;100.00;103543.94;6219469;23;20023;-95
2021/12/16 08:48:54;;;;;;;158.27;50.40;;;;;;;5.25;100.00;103531.97;6220028;23;20008;-94
2021/12/16 08:51:54;;;;;;;177.60;49.83;;;;;;;5.23;100.00;103524.00;6222288;23;20028;-95
2021/12/16 08:54:36;;;;;;;135.23;50.63;;;;;;;5.29;100.00;103541.53;6220423;23;20382;-94
2021/12/16 08:57:05;;;;;;;102.05;49.85;;;;;;;5.47;100.00;103565.38;6220888;23;20012;-91
2021/12/16 08:59:33;;;;;;;103.82;49.90;;;;;;;5.60;100.00;103583.19;6193226;23;20387;-90
2021/12/16 09:02:02;;;;;;;106.63;49.90;;;;;;;5.72;100.00;103613.72;6218152;23;20088;-93
2021/12/16 09:04:35;;;;;;;108.72;52.47;;;;;;;5.69;100.00;103599.63;6223469;23;20004;-92
2021/12/16 09:07:11;;;;;;;109.65;52.40;;;;;;;5.52;100.00;103558.69;6232292;23;20028;-93
2021/12/16 09:09:46;;;;;;;106.78;50.90;;;;;;;5.75;100.00;103601.88;6222842;23;20436;-93
2021/12/16 09:15:07;;;;;;;96.10;48.15;;;;;;;5.58;100.00;103560.03;6256995;23;20332;-93
2021/12/16 09:17:40;;;;;;;95.85;50.47;;;;;;;5.90;100.00;103598.00;6220601;23;20032;-90
2021/12/16 09:20:37;;;;;;;;;;;;;;;;;;;;;
2021/12/16 09:23:11;;;;;;;95.82;50.30;;;;;;;5.91;100.00;103586.25;6197077;23;20074;-93
2021/12/16 09:25:44;;;;;;;106.07;52.08;;;;;;;5.88;100.00;103564.94;6220033;23;20042;-93
2021/12/16 09:28:29;;;;;;;103.65;52.72;;;;;;;6.23;100.00;103601.81;6221579;23;20000;-93
2021/12/16 09:31:04;;;;;;;99.47;51.90;;;;;;;6.04;100.00;103561.94;6219475;23;20012;-93
2021/12/16 09:33:41;;;;;;;104.97;51.95;;;;;;;6.30;100.00;103599.50;6220192;23;20442;-93
2021/12/16 09:36:20;;;;;;;99.88;52.88;;;;;;;6.18;100.00;103573.50;6198435;23;20017;-92
2021/12/16 09:38:50;;;;;;;103.35;53.58;;;;;;;6.51;100.00;103613.16;6220248;23;20004;-93
2021/12/16 09:41:20;;;;;;;103.78;53.00;;;;;;;6.35;100.00;103572.16;6195262;23;20008;-93
2021/12/16 09:43:58;;;;;;;98.30;52.83;;;;;;;6.72;100.00;103628.59;6194833;23;20015;-94
2021/12/16 09:46:30;;;;;;;104.82;53.20;;;;;;;6.74;100.00;103608.59;6219557;23;20058;-93
2021/12/16 09:49:07;;;;;;;91.25;51.67;;;;;;;6.80;100.00;103605.41;6218923;23;20095;-93
2021/12/16 09:51:40;;;;;;;88.00;50.10;;;;;;;6.82;100.00;103597.19;6196863;23;20339;-93
2021/12/16 09:54:19;;;;;;;103.03;51.83;;;;;;;7.07;100.00;103631.19;6220153;23;20004;-93
2021/12/16 09:56:48;;;;;;;85.53;49.90;;;;;;;6.80;100.00;103569.47;6220020;23;20008;-94
2021/12/16 09:59:33;;;;;;;89.90;51.03;;;;;;;7.05;100.00;103608.84;6219754;23;20345;-93
2021/12/16 10:02:07;;;;;;;92.82;51.50;;;;;;;7.14;100.00;103601.84;6219740;23;20142;-93
2021/12/16 10:04:34;;;;;;;92.82;52.17;;;;;;;7.22;100.00;103606.59;6219829;23;20019;-90
2021/12/16 10:07:11;;;;;;;90.78;52.80;;;;;;;7.31;100.00;103612.13;6221320;23;20004;-90
2021/12/16 10:09:37;;;;;;;88.85;54.25;;;;;;;7.28;100.00;103590.78;6221305;23;20312;-92
2021/12/16 10:12:10;;;;;;;85.30;53.63;;;;;;;7.45;100.00;103604.72;6220736;23;20446;-91
2021/12/16 10:15:04;;;;;;;89.35;54.75;;;;;;;7.70;100.00;103634.09;6197417;23;20347;-90
2021/12/16 10:17:41;;;;;;;87.05;54.83;;;;;;;7.83;100.00;103646.63;6182520;23;20011;-91
2021/12/16 10:20:17;;;;;;;89.70;56.70;;;;;;;8.00;100.00;103624.44;6246153;23;20004;-89
2021/12/16 10:22:44;;;;;;;93.38;55.80;;;;;;;8.23;100.00;103624.28;6221608;23;20061;-90
2021/12/16 10:25:25;;;;;;;79.15;53.63;;;;;;;8.36;100.00;103638.47;6196689;23;20012;-89
2021/12/16 10:28:03;;;;;;;80.00;53.13;;;;;;;8.60;100.00;103640.91;6223978;23;20007;-89
2021/12/16 10:30:41;;;;;;;72.13;49.67;;;;;;;8.67;100.00;103600.66;6221639;23;20011;-90
2021/12/16 10:33:45;;;;;;;64.53;44.10;;;;;;;8.97;100.00;103598.91;6221977;23;20011;-90
2021/12/16 10:36:19;;;;;;;56.40;40.90;;;;;;;9.07;100.00;103574.59;6217356;23;20411;-90
2021/12/16 10:38:50;;;;;;;51.80;37.95;;;;;;;9.29;100.00;103577.06;6221461;23;20339;-90
2021/12/16 10:41:46;;;;;;;52.30;34.40;;;;;;;9.59;100.00;103601.47;6220740;23;20032;-89
2021/12/16 10:44:23;;;;;;;46.50;34.03;;;;;;;9.79;100.00;103575.25;6221558;23;20247;-92
2021/12/16 10:46:59;;;;;;;42.13;31.08;;;;;;;10.34;100.00;103620.75;6219995;23;20339;-88
2021/12/16 10:49:31;;;;;;;38.10;29.55;;;;;;;10.22;100.00;103581.19;6220285;23;20088;-88
2021/12/16 10:52:03;;;;;;;37.17;27.73;;;;;;;10.77;99.99;103613.03;6219898;23;20026;-89
2021/12/16 10:54:31;;;;;;;35.33;26.60;;;;;;;11.32;98.40;103631.19;6216456;23;20058;-90
2021/12/16 10:57:14;;;;;;;33.83;24.40;;;;;;;11.70;95.11;103630.06;6219307;23;20008;-90
2021/12/16 10:59:56;;;;;;;33.35;22.45;;;;;;;11.85;93.19;103626.81;6217847;23;20004;-90
2021/12/16 11:02:33;;;;;;;32.72;23.73;;;;;;;11.54;92.22;103570.09;6220073;23;20050;-93
2021/12/16 11:05:11;;;;;;;35.03;23.67;;;;;;;11.81;nan;103639.00;6220281;23;20004;-93
2021/12/16 11:07:52;;;;;;;31.92;21.90;;;;;;;11.80;92.11;103580.22;6219128;23;20360;-93
2021/12/16 11:13:36;;;;;;;29.45;22.02;;;;;;;12.22;87.29;103580.41;6193033;23;20359;-93
2021/12/16 11:16:17;;;;;;;30.20;20.63;;;;;;;12.48;86.21;103587.69;6209998;23;20027;-93
2021/12/16 11:18:46;;;;;;;28.83;19.38;;;;;;;12.75;83.50;103607.56;6195670;23;20016;-93
2021/12/16 11:21:13;;;;;;;29.70;19.77;;;;;;;12.81;84.46;103598.75;6220997;23;20090;-93
2021/12/16 11:23:44;;;;;;;28.77;20.52;;;;;;;12.85;83.57;103591.97;6221495;23;20087;-93
2021/12/16 11:26:26;;;;;;;28.90;20.15;;;;;;;12.99;84.52;103585.91;6220610;23;20455;-93
2021/12/16 11:28:55;;;;;;;28.15;17.75;;;;;;;13.25;80.84;103584.94;6219528;23;20004;-93
2021/12/16 11:31:33;;;;;;;29.38;18.10;;;;;;;13.69;82.64;103628.34;6220487;23;20377;-93
2021/12/16 11:34:07;;;;;;;26.25;17.48;;;;;;;13.38;79.61;103586.38;6220624;23;20068;-91
2021/12/16 11:36:40;;;;;;;24.75;17.38;;;;;;;13.39;79.07;103585.34;6220195;23;20012;-91
2021/12/16 11:39:14;;;;;;;23.90;14.98;;;;;;;13.68;79.48;103617.63;6220806;23;20378;-91
2021/12/16 11:42:01;;;;;;;24.95;16.13;;;;;;;13.67;78.39;103581.31;6219681;23;20061;-91
2021/12/16 11:44:33;;;;;;;23.00;15.05;;;;;;;14.35;76.54;103608.38;6220047;23;20004;-89
2021/12/16 11:47:25;;;;;;;23.25;14.77;;;;;;;14.65;80.15;103604.06;6220259;23;20042;-91
2021/12/16 11:50:01;;;;;;;20.10;13.48;;;;;;;14.96;74.39;103608.75;6219955;23;20083;-90
2021/12/16 11:55:50;;;;;;;;;;;;;;;18.30;82.23;103612.75;6246998;23;20019;-91
2021/12/16 11:58:19;;;;;;;16.70;12.00;;;;;;;21.01;56.57;103568.69;6219390;23;19961;-91
2021/12/16 12:00:55;;;;;;;17.67;12.20;;;;;;;22.67;51.00;103573.91;6193964;23;20354;-91
2021/12/16 12:04:07;;;;;;;18.52;11.65;;;;;;;23.75;55.21;103576.00;6198506;23;20027;-91
2021/12/16 12:06:36;;;;;;;18.58;11.43;;;;;;;22.90;47.14;103559.34;6226020;23;20000;-91
2021/12/16 12:09:08;;;;;;;16.65;10.40;;;;;;;22.39;49.38;103555.09;6224220;23;20004;-91
2021/12/16 12:11:57;;;;;;;17.20;10.52;;;;;;;22.32;55.99;103595.78;6221357;23;20113;-91
2021/12/16 12:14:34;;;;;;;17.95;10.50;;;;;;;21.30;52.39;103589.31;6205903;23;20027;-92
2021/12/16 12:17:16;;;;;;;16.48;9.88;;;;;;;20.47;54.08;103551.44;6219916;23;20324;-91
2021/12/16 12:20:01;;;;;;;16.75;11.05;;;;;;;20.37;54.34;103557.41;6219354;23;20004;-92
2021/12/16 12:22:29;;;;;;;18.70;11.93;;;;;;;20.74;48.83;103546.69;6219721;23;20011;-92
2021/12/16 12:24:56;;;;;;;18.33;10.88;;;;;;;21.10;48.43;103585.84;6194831;23;20347;-91
2021/12/16 12:27:28;;;;;;;16.40;11.32;;;;;;;20.91;48.53;103555.34;6193859;23;20402;-92
2021/12/16 12:30:14;;;;;;;;;;;;;;;;;;;;;
2021/12/16 12:32:46;;;;;;;16.13;10.30;;;;;;;20.26;49.43;103549.81;6246532;23;20087;-92
2021/12/16 12:35:27;;;;;;;14.73;9.60;;;;;;;20.80;52.16;103550.50;6218842;23;20330;-92
2021/12/16 12:37:59;;;;;;;17.25;10.70;;;;;;;21.49;47.15;103590.25;6219533;23;20254;-92
2021/12/16 12:40:32;;;;;;;17.45;10.70;;;;;;;22.05;45.63;103577.50;6217964;23;20083;-91
2021/12/16 12:43:00;;;;;;;17.25;10.32;;;;;;;22.77;44.20;103538.22;6219727;23;20039;-92
2021/12/16 12:45:36;;;;;;;18.08;10.57;;;;;;;24.43;41.28;103577.34;6194771;23;20016;-92
2021/12/16 12:48:16;;;;;;;15.93;9.73;;;;;;;25.77;43.35;103582.75;6219778;23;20031;-96
2021/12/16 12:50:58;;;;;;;;;;;;;;;;;;;;;
2021/12/16 12:53:32;;;;;;;;;;;;;;;28.96;47.76;103588.72;6222506;23;20064;-92
2021/12/16 12:56:14;;;;;;;16.00;10.27;;;;;;;29.85;36.89;103559.75;6219131;23;19908;-92
2021/12/16 12:59:32;;;;;;;16.92;9.73;;;;;;;30.98;37.89;103542.53;6218061;23;20316;-92
2021/12/16 13:01:59;;;;;;;16.63;9.50;;;;;;;31.35;27.24;103551.53;6219530;23;20004;-92
2021/12/16 13:04:31;;;;;;;12.68;8.20;;;;;;;32.05;27.34;103547.50;6194143;23;20312;-92
2021/12/16 13:07:03;;;;;;;13.07;8.65;;;;;;;32.55;25.85;103556.47;6218916;23;20000;-92
2021/12/16 13:09:52;;;;;;;15.23;8.93;;;;;;;33.11;25.44;103529.53;6218844;23;20036;-92
2021/12/16 13:13:12;;;;;;;14.85;8.50;;;;;;;33.14;28.32;103537.34;6217946;23;20394;-92
2021/12/16 13:15:52;;;;;;;12.27;8.30;;;;;;;33.67;23.88;103541.78;6211132;23;20342;-92
2021/12/16 13:24:36;;;;;;;10.80;7.63;;;;;;;34.19;23.70;103507.00;6244867;23;20509;-93
2021/12/16 13:27:26;;;;;;;11.27;7.30;;;;;;;33.76;21.75;103535.50;6218220;23;20327;-92
2021/12/16 13:30:20;;;;;;;12.13;7.68;;;;;;;33.35;27.05;103508.91;6218794;23;20402;-92
2021/12/16 13:36:27;;;;;;;11.18;7.20;;;;;;;34.19;22.11;103499.38;6245762;23;20000;-92
2021/12/16 13:38:56;;;;;;;9.90;6.38;;;;;;;33.63;22.31;103515.41;6219339;22;20008;-92
2021/12/16 13:41:36;;;;;;;8.82;6.57;;;;;;;32.89;24.09;103502.03;6172334;23;20378;-92
2021/12/16 13:44:14;;;;;;;9.80;6.72;;;;;;;32.68;23.99;103505.16;6220726;23;20320;-92
2021/12/16 13:47:13;;;;;;;9.65;6.65;;;;;;;33.50;27.15;103531.16;6221882;23;20339;-92
2021/12/16 14:07:59;;;;;;;11.98;7.35;;;;;;;31.66;26.29;103510.88;6259024;23;20050;-92
2021/12/16 14:10:53;;;;;;;11.75;6.75;;;;;;;31.73;26.81;103538.59;6222511;23;20043;-92
2021/12/16 14:17:11;;;;;;;11.98;7.22;;;;;;;30.88;27.17;103523.78;6247846;23;20074;-92
2021/12/16 14:25:53;;;;;;;10.60;6.63;;;;;;;29.93;27.02;103511.63;6248553;23;20015;-92
2021/12/16 14:31:22;;;;;;;10.32;5.47;;;;;;;28.17;26.28;103518.88;6248847;23;20027;-90
2021/12/16 14:40:07;;;;;;;12.32;6.35;;;;;;;26.97;28.30;103545.19;6248624;23;20402;-90
2021/12/16 14:51:04;;;;;;;9.48;5.75;;;;;;;25.11;33.51;103546.28;6258693;23;20007;-90
2021/12/16 14:54:07;;;;;;;9.18;6.10;;;;;;;23.61;33.72;103533.84;6220737;23;20284;-90
2021/12/16 14:56:38;;;;;;;12.82;6.10;;;;;;;21.97;36.43;103535.47;6220776;23;20083;-90
2021/12/16 14:59:36;;;;;;;17.08;10.02;;;;;;;21.27;39.07;103581.47;6221957;23;20035;-90
2021/12/16 15:02:24;;;;;;;;;;;;;;;;;;;;;
2021/12/16 15:04:55;;;;;;;12.38;6.72;;;;;;;18.86;43.15;103569.75;6251222;23;20398;-93
2021/12/16 15:07:55;;;;;;;;;;;;;;;;;;;;;
2021/12/16 15:10:59;;;;;;;13.23;7.15;;;;;;;17.71;45.51;103534.28;6220592;23;20083;-92
2021/12/16 15:43:34;;;;;;;10.90;5.57;;;;;;;13.18;57.74;103585.78;6258210;23;20331;-93
2021/12/16 15:46:24;;;;;;;9.90;5.75;;;;;;;13.02;58.46;103603.81;6220628;23;20062;-92
2021/12/16 15:48:54;;;;;;;14.23;6.47;;;;;;;12.98;59.73;103624.22;6205416;23;20007;-92
2021/12/16 15:51:42;;;;;;;14.77;6.78;;;;;;;12.68;58.64;103580.16;6195360;23;20062;-93
2021/12/16 15:54:18;;;;;;;11.95;6.63;;;;;;;12.49;60.43;103588.53;6220176;23;20016;-92
2021/12/16 15:57:22;;;;;;;;;;;;;;;;;;;;;
2021/12/16 15:59:55;;;;;;;14.40;7.68;;;;;;;12.12;62.35;103590.53;6241715;23;20027;-92
2021/12/16 16:03:04;;;;;;;16.05;7.07;;;;;;;12.11;61.55;103588.81;6195875;23;20008;-92
2021/12/16 16:05:41;;;;;;;15.48;8.32;;;;;;;11.83;63.21;103594.34;6220622;23;20007;-93
2021/12/16 16:08:17;;;;;;;17.17;9.15;;;;;;;12.09;63.63;103647.97;6220500;23;20007;-92
2021/12/16 16:11:29;;;;;;;17.75;9.05;;;;;;;11.78;62.08;103602.13;6219528;23;20399;-92
2021/12/16 16:14:49;;;;;;;;;;;;;;;;;;;;;
2021/12/16 16:17:28;;;;;;;15.32;8.95;;;;;;;11.85;64.80;103659.47;6246954;23;20087;-93
2021/12/16 16:20:15;;;;;;;17.08;9.75;;;;;;;11.87;64.21;103665.59;6220165;23;20087;-92
2021/12/16 16:23:19;;;;;;;21.98;10.18;;;;;;;11.44;64.74;103610.09;6220322;23;20090;-93
2021/12/16 16:25:53;;;;;;;15.77;8.95;;;;;;;11.45;66.89;103639.84;6216040;23;20392;-92
2021/12/16 16:28:21;;;;;;;16.98;9.25;;;;;;;11.33;67.85;103641.91;6194585;23;20331;-92
2021/12/16 16:30:51;;;;;;;21.75;9.45;;;;;;;11.18;67.78;103619.00;6219745;23;20004;-90
2021/12/16 16:33:19;;;;;;;17.88;10.02;;;;;;;11.30;68.31;103644.09;6218472;23;20454;-89
2021/12/16 16:36:00;;;;;;;24.13;10.50;;;;;;;11.37;68.20;103670.53;6218097;23;20012;-89
2021/12/16 16:38:35;;;;;;;25.05;14.77;;;;;;;11.24;68.58;103665.44;6245679;23;20363;-90
2021/12/16 16:41:06;;;;;;;17.77;9.82;;;;;;;11.19;69.29;103678.63;6251056;23;20008;-91
2021/12/16 16:43:44;;;;;;;17.92;10.10;;;;;;;10.92;70.46;103646.00;6198258;23;20696;-90
2021/12/16 16:46:20;;;;;;;18.67;10.35;;;;;;;10.93;70.41;103672.16;6220484;23;20431;-89
2021/12/16 16:49:04;;;;;;;21.35;13.32;;;;;;;10.62;71.35;103635.22;6219118;23;20035;-90